Dunkirk, United Kingdom
Current Conditions -  °F | °C
As of 12:50 PM on Wednesday 26 Nov 2014 (Local Time) from EGMC Reporting Station
Haze Haze  
Wind Chill: 50°   Ceiling: 500
Heat Index: 50°   Visibility: 3mi
Dew Point: 46°   Wind: 3mph
Humidity: 87%   Direction: 110°ESE
Pressure: 29.83"   Gusts: NA
Location:  51.29°N, 0.98°E
Report Text: EGMC 261250Z 11003KT 5000 BR OVC005 10/08 Q1010
Loading
Personal Weather Stations






























Interactive Weather Map New forecast layout! Learn more

10-Day Weather Forecast

Advertisements
Track Severe Weather on mobile